<?xml version="1.0" encoding="UTF-8" standalone="no" ?>
<gpx xmlns="http://www.topografix.com/GPX/1/1" xmlns:xsi="http://www.w3.org/2001/XMLSchema-instance" xsi:schemaLocation="http://www.topografix.com/GPX/1/1 http://www.topografix.com/GPX/1/1/gpx.xsd" version="1.1" creator="VisuGPX - https://www.visugpx.com">
  <metadata>
    <name>13774046-Enregistrement du 30/09/2021</name>
  </metadata>
  <trk>
    <name><![CDATA[13774046-Enregistrement du 30/09/2021]]></name>
    <trkseg>
      <trkpt lat="43.62345" lon="6.75356">
        <ele>337</ele>
        <time>2021-10-01T10:56:07Z</time>
      </trkpt>
      <trkpt lat="43.6235" lon="6.75343">
        <ele>338</ele>
        <time>2021-10-01T10:56:16Z</time>
      </trkpt>
      <trkpt lat="43.62338" lon="6.75363">
        <ele>335</ele>
        <time>2021-10-01T10:56:31Z</time>
      </trkpt>
      <trkpt lat="43.62326" lon="6.75371">
        <ele>334</ele>
        <time>2021-10-01T10:56:41Z</time>
      </trkpt>
      <trkpt lat="43.6232" lon="6.75381">
        <ele>333</ele>
        <time>2021-10-01T10:56:49Z</time>
      </trkpt>
      <trkpt lat="43.62314" lon="6.75368">
        <ele>332</ele>
        <time>2021-10-01T10:56:58Z</time>
      </trkpt>
      <trkpt lat="43.62295" lon="6.75354">
        <ele>331</ele>
        <time>2021-10-01T10:57:15Z</time>
      </trkpt>
      <trkpt lat="43.62299" lon="6.75343">
        <ele>332</ele>
        <time>2021-10-01T10:57:22Z</time>
      </trkpt>
      <trkpt lat="43.62287" lon="6.75347">
        <ele>331</ele>
        <time>2021-10-01T10:57:32Z</time>
      </trkpt>
      <trkpt lat="43.62281" lon="6.75399">
        <ele>326</ele>
        <time>2021-10-01T10:58:03Z</time>
      </trkpt>
      <trkpt lat="43.62248" lon="6.75387">
        <ele>323</ele>
        <time>2021-10-01T10:58:30Z</time>
      </trkpt>
      <trkpt lat="43.62237" lon="6.75391">
        <ele>320</ele>
        <time>2021-10-01T10:58:39Z</time>
      </trkpt>
      <trkpt lat="43.62233" lon="6.75386">
        <ele>320</ele>
        <time>2021-10-01T10:58:43Z</time>
      </trkpt>
      <trkpt lat="43.62248" lon="6.7541">
        <ele>319</ele>
        <time>2021-10-01T10:59:02Z</time>
      </trkpt>
      <trkpt lat="43.62237" lon="6.75387">
        <ele>320</ele>
        <time>2021-10-01T10:59:18Z</time>
      </trkpt>
      <trkpt lat="43.62205" lon="6.75386">
        <ele>314</ele>
        <time>2021-10-01T10:59:43Z</time>
      </trkpt>
      <trkpt lat="43.6217" lon="6.75362">
        <ele>312</ele>
        <time>2021-10-01T11:00:15Z</time>
      </trkpt>
      <trkpt lat="43.62154" lon="6.7536">
        <ele>307</ele>
        <time>2021-10-01T11:00:27Z</time>
      </trkpt>
      <trkpt lat="43.62146" lon="6.75355">
        <ele>305</ele>
        <time>2021-10-01T11:00:34Z</time>
      </trkpt>
      <trkpt lat="43.62137" lon="6.75375">
        <ele>299</ele>
        <time>2021-10-01T11:00:48Z</time>
      </trkpt>
      <trkpt lat="43.62127" lon="6.7538">
        <ele>295</ele>
        <time>2021-10-01T11:00:57Z</time>
      </trkpt>
      <trkpt lat="43.62123" lon="6.75343">
        <ele>299</ele>
        <time>2021-10-01T11:01:18Z</time>
      </trkpt>
      <trkpt lat="43.62105" lon="6.75307">
        <ele>295</ele>
        <time>2021-10-01T11:01:44Z</time>
      </trkpt>
      <trkpt lat="43.62097" lon="6.75273">
        <ele>293</ele>
        <time>2021-10-01T11:02:04Z</time>
      </trkpt>
      <trkpt lat="43.62092" lon="6.75267">
        <ele>292</ele>
        <time>2021-10-01T11:02:10Z</time>
      </trkpt>
      <trkpt lat="43.62092" lon="6.75245">
        <ele>291</ele>
        <time>2021-10-01T11:02:22Z</time>
      </trkpt>
      <trkpt lat="43.62071" lon="6.75237">
        <ele>284</ele>
        <time>2021-10-01T11:02:40Z</time>
      </trkpt>
      <trkpt lat="43.62004" lon="6.75251">
        <ele>263</ele>
        <time>2021-10-01T11:03:34Z</time>
      </trkpt>
      <trkpt lat="43.61996" lon="6.75247">
        <ele>261</ele>
        <time>2021-10-01T11:03:41Z</time>
      </trkpt>
      <trkpt lat="43.62008" lon="6.75188">
        <ele>261</ele>
        <time>2021-10-01T11:04:16Z</time>
      </trkpt>
      <trkpt lat="43.62008" lon="6.75146">
        <ele>257</ele>
        <time>2021-10-01T11:04:41Z</time>
      </trkpt>
      <trkpt lat="43.61996" lon="6.75098">
        <ele>251</ele>
        <time>2021-10-01T11:05:10Z</time>
      </trkpt>
      <trkpt lat="43.61985" lon="6.75014">
        <ele>242</ele>
        <time>2021-10-01T11:06:00Z</time>
      </trkpt>
      <trkpt lat="43.61965" lon="6.74951">
        <ele>234</ele>
        <time>2021-10-01T11:06:40Z</time>
      </trkpt>
      <trkpt lat="43.61947" lon="6.7493">
        <ele>230</ele>
        <time>2021-10-01T11:06:58Z</time>
      </trkpt>
      <trkpt lat="43.61936" lon="6.7491">
        <ele>228</ele>
        <time>2021-10-01T11:07:13Z</time>
      </trkpt>
      <trkpt lat="43.6194" lon="6.74899">
        <ele>228</ele>
        <time>2021-10-01T11:07:20Z</time>
      </trkpt>
      <trkpt lat="43.61966" lon="6.74873">
        <ele>229</ele>
        <time>2021-10-01T11:07:46Z</time>
      </trkpt>
      <trkpt lat="43.61977" lon="6.74849">
        <ele>229</ele>
        <time>2021-10-01T11:08:02Z</time>
      </trkpt>
      <trkpt lat="43.61983" lon="6.74798">
        <ele>229</ele>
        <time>2021-10-01T11:08:32Z</time>
      </trkpt>
      <trkpt lat="43.61997" lon="6.74742">
        <ele>231</ele>
        <time>2021-10-01T11:09:07Z</time>
      </trkpt>
      <trkpt lat="43.61997" lon="6.74701">
        <ele>229</ele>
        <time>2021-10-01T11:09:30Z</time>
      </trkpt>
      <trkpt lat="43.62009" lon="6.7466">
        <ele>229</ele>
        <time>2021-10-01T11:09:56Z</time>
      </trkpt>
      <trkpt lat="43.62005" lon="6.74613">
        <ele>226</ele>
        <time>2021-10-01T11:10:23Z</time>
      </trkpt>
      <trkpt lat="43.61992" lon="6.74544">
        <ele>223</ele>
        <time>2021-10-01T11:11:05Z</time>
      </trkpt>
      <trkpt lat="43.61991" lon="6.74507">
        <ele>223</ele>
        <time>2021-10-01T11:11:26Z</time>
      </trkpt>
      <trkpt lat="43.6196" lon="6.74453">
        <ele>221</ele>
        <time>2021-10-01T11:12:06Z</time>
      </trkpt>
      <trkpt lat="43.61948" lon="6.74421">
        <ele>221</ele>
        <time>2021-10-01T11:12:27Z</time>
      </trkpt>
      <trkpt lat="43.61939" lon="6.74345">
        <ele>221</ele>
        <time>2021-10-01T11:13:12Z</time>
      </trkpt>
      <trkpt lat="43.61927" lon="6.74305">
        <ele>222</ele>
        <time>2021-10-01T11:13:37Z</time>
      </trkpt>
      <trkpt lat="43.61933" lon="6.74262">
        <ele>223</ele>
        <time>2021-10-01T11:14:02Z</time>
      </trkpt>
      <trkpt lat="43.61955" lon="6.74234">
        <ele>224</ele>
        <time>2021-10-01T11:14:26Z</time>
      </trkpt>
      <trkpt lat="43.61968" lon="6.74198">
        <ele>225</ele>
        <time>2021-10-01T11:14:49Z</time>
      </trkpt>
      <trkpt lat="43.61981" lon="6.74118">
        <ele>227</ele>
        <time>2021-10-01T11:15:37Z</time>
      </trkpt>
      <trkpt lat="43.61977" lon="6.74084">
        <ele>228</ele>
        <time>2021-10-01T11:15:57Z</time>
      </trkpt>
      <trkpt lat="43.6195" lon="6.74016">
        <ele>230</ele>
        <time>2021-10-01T11:16:42Z</time>
      </trkpt>
      <trkpt lat="43.61946" lon="6.73991">
        <ele>231</ele>
        <time>2021-10-01T11:16:57Z</time>
      </trkpt>
      <trkpt lat="43.6193" lon="6.73969">
        <ele>234</ele>
        <time>2021-10-01T11:17:15Z</time>
      </trkpt>
      <trkpt lat="43.61877" lon="6.73992">
        <ele>233</ele>
        <time>2021-10-01T11:17:59Z</time>
      </trkpt>
      <trkpt lat="43.61863" lon="6.73994">
        <ele>233</ele>
        <time>2021-10-01T11:18:11Z</time>
      </trkpt>
      <trkpt lat="43.61857" lon="6.73972">
        <ele>236</ele>
        <time>2021-10-01T11:18:24Z</time>
      </trkpt>
      <trkpt lat="43.61852" lon="6.73968">
        <ele>237</ele>
        <time>2021-10-01T11:18:29Z</time>
      </trkpt>
      <trkpt lat="43.61839" lon="6.7397">
        <ele>237</ele>
        <time>2021-10-01T11:18:39Z</time>
      </trkpt>
      <trkpt lat="43.61817" lon="6.73983">
        <ele>236</ele>
        <time>2021-10-01T11:18:58Z</time>
      </trkpt>
      <trkpt lat="43.618" lon="6.73986">
        <ele>236</ele>
        <time>2021-10-01T11:19:12Z</time>
      </trkpt>
      <trkpt lat="43.61752" lon="6.7398">
        <ele>239</ele>
        <time>2021-10-01T11:19:51Z</time>
      </trkpt>
      <trkpt lat="43.61734" lon="6.73985">
        <ele>238</ele>
        <time>2021-10-01T11:20:05Z</time>
      </trkpt>
      <trkpt lat="43.61717" lon="6.73982">
        <ele>239</ele>
        <time>2021-10-01T11:20:19Z</time>
      </trkpt>
      <trkpt lat="43.61692" lon="6.73984">
        <ele>240</ele>
        <time>2021-10-01T11:20:39Z</time>
      </trkpt>
      <trkpt lat="43.6168" lon="6.7398">
        <ele>241</ele>
        <time>2021-10-01T11:20:49Z</time>
      </trkpt>
      <trkpt lat="43.61672" lon="6.73959">
        <ele>245</ele>
        <time>2021-10-01T11:21:03Z</time>
      </trkpt>
      <trkpt lat="43.61673" lon="6.73951">
        <ele>247</ele>
        <time>2021-10-01T11:21:08Z</time>
      </trkpt>
      <trkpt lat="43.61684" lon="6.73936">
        <ele>249</ele>
        <time>2021-10-01T11:21:20Z</time>
      </trkpt>
      <trkpt lat="43.617" lon="6.73901">
        <ele>254</ele>
        <time>2021-10-01T11:21:44Z</time>
      </trkpt>
      <trkpt lat="43.61729" lon="6.73865">
        <ele>259</ele>
        <time>2021-10-01T11:22:15Z</time>
      </trkpt>
      <trkpt lat="43.61793" lon="6.73861">
        <ele>258</ele>
        <time>2021-10-01T11:23:06Z</time>
      </trkpt>
      <trkpt lat="43.61829" lon="6.73864">
        <ele>257</ele>
        <time>2021-10-01T11:23:35Z</time>
      </trkpt>
      <trkpt lat="43.61832" lon="6.7386">
        <ele>258</ele>
        <time>2021-10-01T11:23:39Z</time>
      </trkpt>
      <trkpt lat="43.61843" lon="6.7386">
        <ele>257</ele>
        <time>2021-10-01T11:23:47Z</time>
      </trkpt>
      <trkpt lat="43.61838" lon="6.73876">
        <ele>254</ele>
        <time>2021-10-01T11:23:58Z</time>
      </trkpt>
      <trkpt lat="43.61856" lon="6.7389">
        <ele>249</ele>
        <time>2021-10-01T11:24:14Z</time>
      </trkpt>
      <trkpt lat="43.61881" lon="6.73882">
        <ele>248</ele>
        <time>2021-10-01T11:24:35Z</time>
      </trkpt>
      <trkpt lat="43.61911" lon="6.73833">
        <ele>254</ele>
        <time>2021-10-01T11:25:12Z</time>
      </trkpt>
      <trkpt lat="43.61932" lon="6.7382">
        <ele>252</ele>
        <time>2021-10-01T11:25:30Z</time>
      </trkpt>
      <trkpt lat="43.61941" lon="6.73805">
        <ele>252</ele>
        <time>2021-10-01T11:25:42Z</time>
      </trkpt>
      <trkpt lat="43.61954" lon="6.73805">
        <ele>250</ele>
        <time>2021-10-01T11:25:52Z</time>
      </trkpt>
      <trkpt lat="43.61947" lon="6.73806">
        <ele>251</ele>
        <time>2021-10-01T11:25:58Z</time>
      </trkpt>
      <trkpt lat="43.61947" lon="6.73801">
        <ele>252</ele>
        <time>2021-10-01T11:26:01Z</time>
      </trkpt>
      <trkpt lat="43.61934" lon="6.73792">
        <ele>256</ele>
        <time>2021-10-01T11:26:12Z</time>
      </trkpt>
      <trkpt lat="43.61937" lon="6.7378">
        <ele>257</ele>
        <time>2021-10-01T11:26:20Z</time>
      </trkpt>
      <trkpt lat="43.6193" lon="6.73774">
        <ele>260</ele>
        <time>2021-10-01T11:26:26Z</time>
      </trkpt>
      <trkpt lat="43.61922" lon="6.73747">
        <ele>265</ele>
        <time>2021-10-01T11:26:43Z</time>
      </trkpt>
      <trkpt lat="43.61896" lon="6.73722">
        <ele>273</ele>
        <time>2021-10-01T11:27:08Z</time>
      </trkpt>
      <trkpt lat="43.61882" lon="6.73718">
        <ele>276</ele>
        <time>2021-10-01T11:27:20Z</time>
      </trkpt>
      <trkpt lat="43.61864" lon="6.73701">
        <ele>281</ele>
        <time>2021-10-01T11:27:37Z</time>
      </trkpt>
      <trkpt lat="43.61844" lon="6.73659">
        <ele>291</ele>
        <time>2021-10-01T11:28:06Z</time>
      </trkpt>
      <trkpt lat="43.61836" lon="6.73639">
        <ele>295</ele>
        <time>2021-10-01T11:28:20Z</time>
      </trkpt>
      <trkpt lat="43.6184" lon="6.7362">
        <ele>297</ele>
        <time>2021-10-01T11:28:31Z</time>
      </trkpt>
      <trkpt lat="43.61835" lon="6.7361">
        <ele>299</ele>
        <time>2021-10-01T11:28:38Z</time>
      </trkpt>
      <trkpt lat="43.61835" lon="6.73597">
        <ele>300</ele>
        <time>2021-10-01T11:28:46Z</time>
      </trkpt>
      <trkpt lat="43.61824" lon="6.73574">
        <ele>304</ele>
        <time>2021-10-01T11:29:02Z</time>
      </trkpt>
      <trkpt lat="43.61823" lon="6.73553">
        <ele>307</ele>
        <time>2021-10-01T11:29:14Z</time>
      </trkpt>
      <trkpt lat="43.61817" lon="6.73535">
        <ele>309</ele>
        <time>2021-10-01T11:29:25Z</time>
      </trkpt>
      <trkpt lat="43.61823" lon="6.73499">
        <ele>314</ele>
        <time>2021-10-01T11:29:47Z</time>
      </trkpt>
      <trkpt lat="43.61854" lon="6.73476">
        <ele>318</ele>
        <time>2021-10-01T11:30:15Z</time>
      </trkpt>
      <trkpt lat="43.61923" lon="6.73446">
        <ele>323</ele>
        <time>2021-10-01T11:31:13Z</time>
      </trkpt>
      <trkpt lat="43.61963" lon="6.73417">
        <ele>329</ele>
        <time>2021-10-01T11:31:49Z</time>
      </trkpt>
      <trkpt lat="43.62" lon="6.73412">
        <ele>330</ele>
        <time>2021-10-01T11:32:19Z</time>
      </trkpt>
      <trkpt lat="43.6203" lon="6.73399">
        <ele>332</ele>
        <time>2021-10-01T11:32:44Z</time>
      </trkpt>
      <trkpt lat="43.6206" lon="6.73398">
        <ele>331</ele>
        <time>2021-10-01T11:33:08Z</time>
      </trkpt>
      <trkpt lat="43.62067" lon="6.7339">
        <ele>332</ele>
        <time>2021-10-01T11:33:15Z</time>
      </trkpt>
      <trkpt lat="43.62096" lon="6.73321">
        <ele>343</ele>
        <time>2021-10-01T11:34:02Z</time>
      </trkpt>
      <trkpt lat="43.62122" lon="6.73302">
        <ele>342</ele>
        <time>2021-10-01T11:34:25Z</time>
      </trkpt>
      <trkpt lat="43.62143" lon="6.73271">
        <ele>344</ele>
        <time>2021-10-01T11:34:50Z</time>
      </trkpt>
      <trkpt lat="43.62223" lon="6.73198">
        <ele>342</ele>
        <time>2021-10-01T11:36:06Z</time>
      </trkpt>
      <trkpt lat="43.62253" lon="6.73159">
        <ele>344</ele>
        <time>2021-10-01T11:36:39Z</time>
      </trkpt>
      <trkpt lat="43.62268" lon="6.73127">
        <ele>344</ele>
        <time>2021-10-01T11:37:02Z</time>
      </trkpt>
      <trkpt lat="43.62272" lon="6.73103">
        <ele>346</ele>
        <time>2021-10-01T11:37:16Z</time>
      </trkpt>
      <trkpt lat="43.62264" lon="6.73085">
        <ele>349</ele>
        <time>2021-10-01T11:37:28Z</time>
      </trkpt>
      <trkpt lat="43.62246" lon="6.7307">
        <ele>352</ele>
        <time>2021-10-01T11:37:45Z</time>
      </trkpt>
      <trkpt lat="43.62225" lon="6.73065">
        <ele>354</ele>
        <time>2021-10-01T11:38:02Z</time>
      </trkpt>
      <trkpt lat="43.6221" lon="6.73056">
        <ele>355</ele>
        <time>2021-10-01T11:38:15Z</time>
      </trkpt>
      <trkpt lat="43.62227" lon="6.7307">
        <ele>354</ele>
        <time>2021-10-01T11:38:31Z</time>
      </trkpt>
      <trkpt lat="43.62224" lon="6.73087">
        <ele>354</ele>
        <time>2021-10-01T11:38:41Z</time>
      </trkpt>
      <trkpt lat="43.62225" lon="6.73064">
        <ele>354</ele>
        <time>2021-10-01T11:38:54Z</time>
      </trkpt>
      <trkpt lat="43.62212" lon="6.73059">
        <ele>355</ele>
        <time>2021-10-01T11:39:05Z</time>
      </trkpt>
      <trkpt lat="43.62218" lon="6.73062">
        <ele>355</ele>
        <time>2021-10-01T11:39:10Z</time>
      </trkpt>
      <trkpt lat="43.62223" lon="6.73089">
        <ele>354</ele>
        <time>2021-10-01T11:39:26Z</time>
      </trkpt>
      <trkpt lat="43.62192" lon="6.73132">
        <ele>355</ele>
        <time>2021-10-01T11:40:02Z</time>
      </trkpt>
      <trkpt lat="43.62149" lon="6.73159">
        <ele>360</ele>
        <time>2021-10-01T11:40:39Z</time>
      </trkpt>
      <trkpt lat="43.6214" lon="6.73161">
        <ele>361</ele>
        <time>2021-10-01T11:40:47Z</time>
      </trkpt>
      <trkpt lat="43.62102" lon="6.73156">
        <ele>366</ele>
        <time>2021-10-01T11:41:17Z</time>
      </trkpt>
      <trkpt lat="43.62094" lon="6.7316">
        <ele>367</ele>
        <time>2021-10-01T11:41:24Z</time>
      </trkpt>
      <trkpt lat="43.62081" lon="6.73143">
        <ele>367</ele>
        <time>2021-10-01T11:41:38Z</time>
      </trkpt>
      <trkpt lat="43.62043" lon="6.73135">
        <ele>369</ele>
        <time>2021-10-01T11:42:09Z</time>
      </trkpt>
      <trkpt lat="43.6204" lon="6.73131">
        <ele>369</ele>
        <time>2021-10-01T11:42:13Z</time>
      </trkpt>
      <trkpt lat="43.62056" lon="6.73133">
        <ele>368</ele>
        <time>2021-10-01T11:42:25Z</time>
      </trkpt>
      <trkpt lat="43.62063" lon="6.73152">
        <ele>369</ele>
        <time>2021-10-01T11:42:38Z</time>
      </trkpt>
      <trkpt lat="43.62062" lon="6.73182">
        <ele>370</ele>
        <time>2021-10-01T11:42:55Z</time>
      </trkpt>
      <trkpt lat="43.62051" lon="6.73211">
        <ele>368</ele>
        <time>2021-10-01T11:43:14Z</time>
      </trkpt>
      <trkpt lat="43.62036" lon="6.73233">
        <ele>368</ele>
        <time>2021-10-01T11:43:32Z</time>
      </trkpt>
      <trkpt lat="43.62031" lon="6.73231">
        <ele>369</ele>
        <time>2021-10-01T11:43:36Z</time>
      </trkpt>
      <trkpt lat="43.62027" lon="6.73236">
        <ele>369</ele>
        <time>2021-10-01T11:43:40Z</time>
      </trkpt>
      <trkpt lat="43.62035" lon="6.73234">
        <ele>368</ele>
        <time>2021-10-01T11:43:47Z</time>
      </trkpt>
      <trkpt lat="43.62059" lon="6.73202">
        <ele>368</ele>
        <time>2021-10-01T11:44:13Z</time>
      </trkpt>
      <trkpt lat="43.62066" lon="6.73168">
        <ele>371</ele>
        <time>2021-10-01T11:44:34Z</time>
      </trkpt>
      <trkpt lat="43.62066" lon="6.73137">
        <ele>367</ele>
        <time>2021-10-01T11:44:52Z</time>
      </trkpt>
      <trkpt lat="43.62082" lon="6.73145">
        <ele>367</ele>
        <time>2021-10-01T11:45:06Z</time>
      </trkpt>
      <trkpt lat="43.62091" lon="6.73161">
        <ele>368</ele>
        <time>2021-10-01T11:45:17Z</time>
      </trkpt>
      <trkpt lat="43.62114" lon="6.73155">
        <ele>364</ele>
        <time>2021-10-01T11:45:36Z</time>
      </trkpt>
      <trkpt lat="43.62137" lon="6.73164">
        <ele>362</ele>
        <time>2021-10-01T11:45:55Z</time>
      </trkpt>
      <trkpt lat="43.62143" lon="6.73163">
        <ele>361</ele>
        <time>2021-10-01T11:46:00Z</time>
      </trkpt>
      <trkpt lat="43.6216" lon="6.7315">
        <ele>359</ele>
        <time>2021-10-01T11:46:16Z</time>
      </trkpt>
      <trkpt lat="43.62189" lon="6.73137">
        <ele>356</ele>
        <time>2021-10-01T11:46:40Z</time>
      </trkpt>
      <trkpt lat="43.62214" lon="6.73109">
        <ele>354</ele>
        <time>2021-10-01T11:47:06Z</time>
      </trkpt>
      <trkpt lat="43.62229" lon="6.73078">
        <ele>354</ele>
        <time>2021-10-01T11:47:27Z</time>
      </trkpt>
      <trkpt lat="43.62226" lon="6.73066">
        <ele>354</ele>
        <time>2021-10-01T11:47:35Z</time>
      </trkpt>
      <trkpt lat="43.62199" lon="6.7305">
        <ele>356</ele>
        <time>2021-10-01T11:47:58Z</time>
      </trkpt>
      <trkpt lat="43.62183" lon="6.73032">
        <ele>356</ele>
        <time>2021-10-01T11:48:15Z</time>
      </trkpt>
      <trkpt lat="43.62162" lon="6.72944">
        <ele>359</ele>
        <time>2021-10-01T11:49:08Z</time>
      </trkpt>
      <trkpt lat="43.62127" lon="6.72873">
        <ele>365</ele>
        <time>2021-10-01T11:49:58Z</time>
      </trkpt>
      <trkpt lat="43.62097" lon="6.72858">
        <ele>365</ele>
        <time>2021-10-01T11:50:24Z</time>
      </trkpt>
      <trkpt lat="43.62074" lon="6.72858">
        <ele>363</ele>
        <time>2021-10-01T11:50:42Z</time>
      </trkpt>
      <trkpt lat="43.62046" lon="6.72842">
        <ele>365</ele>
        <time>2021-10-01T11:51:06Z</time>
      </trkpt>
      <trkpt lat="43.6203" lon="6.72825">
        <ele>366</ele>
        <time>2021-10-01T11:51:23Z</time>
      </trkpt>
      <trkpt lat="43.62025" lon="6.7281">
        <ele>365</ele>
        <time>2021-10-01T11:51:32Z</time>
      </trkpt>
      <trkpt lat="43.62028" lon="6.72798">
        <ele>366</ele>
        <time>2021-10-01T11:51:40Z</time>
      </trkpt>
      <trkpt lat="43.62036" lon="6.72793">
        <ele>367</ele>
        <time>2021-10-01T11:51:47Z</time>
      </trkpt>
      <trkpt lat="43.62071" lon="6.72806">
        <ele>370</ele>
        <time>2021-10-01T11:52:16Z</time>
      </trkpt>
      <trkpt lat="43.62077" lon="6.72804">
        <ele>371</ele>
        <time>2021-10-01T11:52:21Z</time>
      </trkpt>
      <trkpt lat="43.62086" lon="6.72789">
        <ele>373</ele>
        <time>2021-10-01T11:52:32Z</time>
      </trkpt>
      <trkpt lat="43.62096" lon="6.72782">
        <ele>374</ele>
        <time>2021-10-01T11:52:41Z</time>
      </trkpt>
      <trkpt lat="43.62119" lon="6.72772">
        <ele>377</ele>
        <time>2021-10-01T11:53:00Z</time>
      </trkpt>
      <trkpt lat="43.6214" lon="6.72771">
        <ele>379</ele>
        <time>2021-10-01T11:53:17Z</time>
      </trkpt>
      <trkpt lat="43.62154" lon="6.72766">
        <ele>381</ele>
        <time>2021-10-01T11:53:29Z</time>
      </trkpt>
      <trkpt lat="43.62164" lon="6.7275">
        <ele>384</ele>
        <time>2021-10-01T11:53:41Z</time>
      </trkpt>
      <trkpt lat="43.62198" lon="6.72718">
        <ele>386</ele>
        <time>2021-10-01T11:54:14Z</time>
      </trkpt>
      <trkpt lat="43.62223" lon="6.72699">
        <ele>389</ele>
        <time>2021-10-01T11:54:37Z</time>
      </trkpt>
      <trkpt lat="43.62243" lon="6.72695">
        <ele>391</ele>
        <time>2021-10-01T11:54:53Z</time>
      </trkpt>
      <trkpt lat="43.62251" lon="6.72685">
        <ele>392</ele>
        <time>2021-10-01T11:55:01Z</time>
      </trkpt>
      <trkpt lat="43.62257" lon="6.72657">
        <ele>394</ele>
        <time>2021-10-01T11:55:18Z</time>
      </trkpt>
      <trkpt lat="43.62267" lon="6.72644">
        <ele>395</ele>
        <time>2021-10-01T11:55:29Z</time>
      </trkpt>
      <trkpt lat="43.62266" lon="6.72632">
        <ele>395</ele>
        <time>2021-10-01T11:55:36Z</time>
      </trkpt>
      <trkpt lat="43.62314" lon="6.72602">
        <ele>398</ele>
        <time>2021-10-01T11:56:18Z</time>
      </trkpt>
      <trkpt lat="43.62323" lon="6.72586">
        <ele>399</ele>
        <time>2021-10-01T11:56:30Z</time>
      </trkpt>
      <trkpt lat="43.62352" lon="6.7256">
        <ele>400</ele>
        <time>2021-10-01T11:56:58Z</time>
      </trkpt>
      <trkpt lat="43.62367" lon="6.7253">
        <ele>400</ele>
        <time>2021-10-01T11:57:19Z</time>
      </trkpt>
      <trkpt lat="43.62421" lon="6.7251">
        <ele>402</ele>
        <time>2021-10-01T11:58:04Z</time>
      </trkpt>
      <trkpt lat="43.62442" lon="6.72489">
        <ele>400</ele>
        <time>2021-10-01T11:58:25Z</time>
      </trkpt>
      <trkpt lat="43.62465" lon="6.72481">
        <ele>400</ele>
        <time>2021-10-01T11:58:44Z</time>
      </trkpt>
      <trkpt lat="43.62497" lon="6.72481">
        <ele>401</ele>
        <time>2021-10-01T11:59:09Z</time>
      </trkpt>
      <trkpt lat="43.62532" lon="6.72472">
        <ele>400</ele>
        <time>2021-10-01T11:59:38Z</time>
      </trkpt>
      <trkpt lat="43.62549" lon="6.7246">
        <ele>400</ele>
        <time>2021-10-01T11:59:53Z</time>
      </trkpt>
      <trkpt lat="43.62568" lon="6.72455">
        <ele>400</ele>
        <time>2021-10-01T12:00:08Z</time>
      </trkpt>
      <trkpt lat="43.62619" lon="6.72428">
        <ele>402</ele>
        <time>2021-10-01T12:00:52Z</time>
      </trkpt>
      <trkpt lat="43.62634" lon="6.72427">
        <ele>402</ele>
        <time>2021-10-01T12:01:04Z</time>
      </trkpt>
      <trkpt lat="43.62689" lon="6.72395">
        <ele>406</ele>
        <time>2021-10-01T12:01:52Z</time>
      </trkpt>
      <trkpt lat="43.62733" lon="6.72427">
        <ele>408</ele>
        <time>2021-10-01T12:02:32Z</time>
      </trkpt>
      <trkpt lat="43.62787" lon="6.72442">
        <ele>410</ele>
        <time>2021-10-01T12:03:16Z</time>
      </trkpt>
      <trkpt lat="43.62818" lon="6.72433">
        <ele>413</ele>
        <time>2021-10-01T12:03:41Z</time>
      </trkpt>
      <trkpt lat="43.62853" lon="6.72432">
        <ele>415</ele>
        <time>2021-10-01T12:04:09Z</time>
      </trkpt>
      <trkpt lat="43.6288" lon="6.72425">
        <ele>415</ele>
        <time>2021-10-01T12:04:31Z</time>
      </trkpt>
      <trkpt lat="43.629" lon="6.72417">
        <ele>416</ele>
        <time>2021-10-01T12:04:48Z</time>
      </trkpt>
      <trkpt lat="43.62949" lon="6.72386">
        <ele>420</ele>
        <time>2021-10-01T12:05:31Z</time>
      </trkpt>
      <trkpt lat="43.62968" lon="6.72383">
        <ele>420</ele>
        <time>2021-10-01T12:05:46Z</time>
      </trkpt>
      <trkpt lat="43.63015" lon="6.72405">
        <ele>419</ele>
        <time>2021-10-01T12:06:26Z</time>
      </trkpt>
      <trkpt lat="43.63028" lon="6.72427">
        <ele>419</ele>
        <time>2021-10-01T12:06:43Z</time>
      </trkpt>
      <trkpt lat="43.63056" lon="6.72459">
        <ele>420</ele>
        <time>2021-10-01T12:07:12Z</time>
      </trkpt>
      <trkpt lat="43.63086" lon="6.72473">
        <ele>422</ele>
        <time>2021-10-01T12:07:37Z</time>
      </trkpt>
      <trkpt lat="43.63101" lon="6.72474">
        <ele>421</ele>
        <time>2021-10-01T12:07:49Z</time>
      </trkpt>
      <trkpt lat="43.63175" lon="6.72405">
        <ele>423</ele>
        <time>2021-10-01T12:09:01Z</time>
      </trkpt>
      <trkpt lat="43.63188" lon="6.7237">
        <ele>422</ele>
        <time>2021-10-01T12:09:23Z</time>
      </trkpt>
      <trkpt lat="43.63208" lon="6.72362">
        <ele>420</ele>
        <time>2021-10-01T12:09:40Z</time>
      </trkpt>
      <trkpt lat="43.63233" lon="6.72338">
        <ele>417</ele>
        <time>2021-10-01T12:10:04Z</time>
      </trkpt>
      <trkpt lat="43.63236" lon="6.72323">
        <ele>417</ele>
        <time>2021-10-01T12:10:13Z</time>
      </trkpt>
      <trkpt lat="43.63244" lon="6.72314">
        <ele>417</ele>
        <time>2021-10-01T12:10:22Z</time>
      </trkpt>
      <trkpt lat="43.63257" lon="6.72306">
        <ele>416</ele>
        <time>2021-10-01T12:10:33Z</time>
      </trkpt>
      <trkpt lat="43.6328" lon="6.723">
        <ele>414</ele>
        <time>2021-10-01T12:10:52Z</time>
      </trkpt>
      <trkpt lat="43.633" lon="6.72287">
        <ele>413</ele>
        <time>2021-10-01T12:11:10Z</time>
      </trkpt>
      <trkpt lat="43.63347" lon="6.72275">
        <ele>409</ele>
        <time>2021-10-01T12:11:48Z</time>
      </trkpt>
      <trkpt lat="43.63369" lon="6.72261">
        <ele>408</ele>
        <time>2021-10-01T12:12:07Z</time>
      </trkpt>
      <trkpt lat="43.63393" lon="6.7226">
        <ele>406</ele>
        <time>2021-10-01T12:12:26Z</time>
      </trkpt>
      <trkpt lat="43.63437" lon="6.72243">
        <ele>405</ele>
        <time>2021-10-01T12:13:03Z</time>
      </trkpt>
      <trkpt lat="43.63491" lon="6.72207">
        <ele>404</ele>
        <time>2021-10-01T12:13:51Z</time>
      </trkpt>
      <trkpt lat="43.63509" lon="6.72211">
        <ele>405</ele>
        <time>2021-10-01T12:14:06Z</time>
      </trkpt>
      <trkpt lat="43.63527" lon="6.72198">
        <ele>408</ele>
        <time>2021-10-01T12:14:22Z</time>
      </trkpt>
      <trkpt lat="43.63533" lon="6.72186">
        <ele>409</ele>
        <time>2021-10-01T12:14:30Z</time>
      </trkpt>
      <trkpt lat="43.63541" lon="6.72187">
        <ele>410</ele>
        <time>2021-10-01T12:14:37Z</time>
      </trkpt>
      <trkpt lat="43.63549" lon="6.72172">
        <ele>411</ele>
        <time>2021-10-01T12:14:48Z</time>
      </trkpt>
      <trkpt lat="43.63563" lon="6.72166">
        <ele>413</ele>
        <time>2021-10-01T12:14:59Z</time>
      </trkpt>
      <trkpt lat="43.63568" lon="6.72156">
        <ele>413</ele>
        <time>2021-10-01T12:15:06Z</time>
      </trkpt>
      <trkpt lat="43.63568" lon="6.72138">
        <ele>412</ele>
        <time>2021-10-01T12:15:17Z</time>
      </trkpt>
      <trkpt lat="43.63574" lon="6.72128">
        <ele>412</ele>
        <time>2021-10-01T12:15:24Z</time>
      </trkpt>
      <trkpt lat="43.63596" lon="6.72108">
        <ele>412</ele>
        <time>2021-10-01T12:15:45Z</time>
      </trkpt>
      <trkpt lat="43.63605" lon="6.72092">
        <ele>412</ele>
        <time>2021-10-01T12:15:57Z</time>
      </trkpt>
      <trkpt lat="43.63629" lon="6.72083">
        <ele>413</ele>
        <time>2021-10-01T12:16:17Z</time>
      </trkpt>
      <trkpt lat="43.63642" lon="6.72065">
        <ele>412</ele>
        <time>2021-10-01T12:16:32Z</time>
      </trkpt>
      <trkpt lat="43.63671" lon="6.72061">
        <ele>413</ele>
        <time>2021-10-01T12:16:55Z</time>
      </trkpt>
      <trkpt lat="43.63708" lon="6.7205">
        <ele>414</ele>
        <time>2021-10-01T12:17:25Z</time>
      </trkpt>
      <trkpt lat="43.63749" lon="6.72028">
        <ele>414</ele>
        <time>2021-10-01T12:18:01Z</time>
      </trkpt>
      <trkpt lat="43.63768" lon="6.72028">
        <ele>416</ele>
        <time>2021-10-01T12:18:16Z</time>
      </trkpt>
      <trkpt lat="43.63806" lon="6.72">
        <ele>417</ele>
        <time>2021-10-01T12:18:50Z</time>
      </trkpt>
      <trkpt lat="43.63813" lon="6.72004">
        <ele>417</ele>
        <time>2021-10-01T12:18:56Z</time>
      </trkpt>
      <trkpt lat="43.63808" lon="6.71994">
        <ele>417</ele>
        <time>2021-10-01T12:19:03Z</time>
      </trkpt>
      <trkpt lat="43.6382" lon="6.72004">
        <ele>418</ele>
        <time>2021-10-01T12:19:15Z</time>
      </trkpt>
      <trkpt lat="43.63812" lon="6.72001">
        <ele>417</ele>
        <time>2021-10-01T12:19:21Z</time>
      </trkpt>
      <trkpt lat="43.63816" lon="6.72006">
        <ele>418</ele>
        <time>2021-10-01T12:19:26Z</time>
      </trkpt>
      <trkpt lat="43.63813" lon="6.72004">
        <ele>417</ele>
        <time>2021-10-01T12:19:28Z</time>
      </trkpt>
      <trkpt lat="43.63825" lon="6.72002">
        <ele>418</ele>
        <time>2021-10-01T12:19:38Z</time>
      </trkpt>
      <trkpt lat="43.63847" lon="6.71987">
        <ele>419</ele>
        <time>2021-10-01T12:19:58Z</time>
      </trkpt>
      <trkpt lat="43.6386" lon="6.71991">
        <ele>420</ele>
        <time>2021-10-01T12:20:08Z</time>
      </trkpt>
      <trkpt lat="43.63882" lon="6.71983">
        <ele>421</ele>
        <time>2021-10-01T12:20:26Z</time>
      </trkpt>
      <trkpt lat="43.63909" lon="6.71987">
        <ele>422</ele>
        <time>2021-10-01T12:20:48Z</time>
      </trkpt>
      <trkpt lat="43.63913" lon="6.71999">
        <ele>422</ele>
        <time>2021-10-01T12:20:56Z</time>
      </trkpt>
      <trkpt lat="43.63914" lon="6.7203">
        <ele>423</ele>
        <time>2021-10-01T12:21:14Z</time>
      </trkpt>
      <trkpt lat="43.63932" lon="6.72062">
        <ele>424</ele>
        <time>2021-10-01T12:21:37Z</time>
      </trkpt>
      <trkpt lat="43.6395" lon="6.72106">
        <ele>424</ele>
        <time>2021-10-01T12:22:07Z</time>
      </trkpt>
      <trkpt lat="43.63978" lon="6.72197">
        <ele>422</ele>
        <time>2021-10-01T12:23:04Z</time>
      </trkpt>
      <trkpt lat="43.63993" lon="6.7222">
        <ele>420</ele>
        <time>2021-10-01T12:23:22Z</time>
      </trkpt>
      <trkpt lat="43.64084" lon="6.72261">
        <ele>416</ele>
        <time>2021-10-01T12:24:38Z</time>
      </trkpt>
      <trkpt lat="43.64098" lon="6.72261">
        <ele>414</ele>
        <time>2021-10-01T12:24:50Z</time>
      </trkpt>
      <trkpt lat="43.64112" lon="6.72254">
        <ele>413</ele>
        <time>2021-10-01T12:25:02Z</time>
      </trkpt>
      <trkpt lat="43.64119" lon="6.72254">
        <ele>412</ele>
        <time>2021-10-01T12:25:07Z</time>
      </trkpt>
      <trkpt lat="43.64123" lon="6.72261">
        <ele>411</ele>
        <time>2021-10-01T12:25:12Z</time>
      </trkpt>
      <trkpt lat="43.6412" lon="6.72278">
        <ele>408</ele>
        <time>2021-10-01T12:25:23Z</time>
      </trkpt>
      <trkpt lat="43.64091" lon="6.72322">
        <ele>406</ele>
        <time>2021-10-01T12:25:57Z</time>
      </trkpt>
      <trkpt lat="43.64046" lon="6.72368">
        <ele>402</ele>
        <time>2021-10-01T12:26:42Z</time>
      </trkpt>
      <trkpt lat="43.64021" lon="6.7238">
        <ele>401</ele>
        <time>2021-10-01T12:27:03Z</time>
      </trkpt>
      <trkpt lat="43.63975" lon="6.72429">
        <ele>396</ele>
        <time>2021-10-01T12:27:50Z</time>
      </trkpt>
      <trkpt lat="43.63932" lon="6.72451">
        <ele>393</ele>
        <time>2021-10-01T12:28:26Z</time>
      </trkpt>
      <trkpt lat="43.63929" lon="6.72466">
        <ele>391</ele>
        <time>2021-10-01T12:28:35Z</time>
      </trkpt>
      <trkpt lat="43.63936" lon="6.72484">
        <ele>388</ele>
        <time>2021-10-01T12:28:47Z</time>
      </trkpt>
      <trkpt lat="43.63983" lon="6.72479">
        <ele>387</ele>
        <time>2021-10-01T12:29:25Z</time>
      </trkpt>
      <trkpt lat="43.6403" lon="6.72462">
        <ele>388</ele>
        <time>2021-10-01T12:30:04Z</time>
      </trkpt>
      <trkpt lat="43.64054" lon="6.72449">
        <ele>389</ele>
        <time>2021-10-01T12:30:24Z</time>
      </trkpt>
      <trkpt lat="43.64077" lon="6.72446">
        <ele>388</ele>
        <time>2021-10-01T12:30:43Z</time>
      </trkpt>
      <trkpt lat="43.64113" lon="6.7243">
        <ele>388</ele>
        <time>2021-10-01T12:31:13Z</time>
      </trkpt>
      <trkpt lat="43.6414" lon="6.72424">
        <ele>386</ele>
        <time>2021-10-01T12:31:35Z</time>
      </trkpt>
      <trkpt lat="43.64169" lon="6.72369">
        <ele>388</ele>
        <time>2021-10-01T12:32:14Z</time>
      </trkpt>
      <trkpt lat="43.64175" lon="6.7234">
        <ele>391</ele>
        <time>2021-10-01T12:32:32Z</time>
      </trkpt>
      <trkpt lat="43.64198" lon="6.72321">
        <ele>392</ele>
        <time>2021-10-01T12:32:53Z</time>
      </trkpt>
      <trkpt lat="43.64211" lon="6.72328">
        <ele>391</ele>
        <time>2021-10-01T12:33:05Z</time>
      </trkpt>
      <trkpt lat="43.64214" lon="6.7234">
        <ele>391</ele>
        <time>2021-10-01T12:33:12Z</time>
      </trkpt>
      <trkpt lat="43.64191" lon="6.72411">
        <ele>387</ele>
        <time>2021-10-01T12:33:57Z</time>
      </trkpt>
      <trkpt lat="43.6419" lon="6.72429">
        <ele>388</ele>
        <time>2021-10-01T12:34:07Z</time>
      </trkpt>
      <trkpt lat="43.64205" lon="6.72431">
        <ele>390</ele>
        <time>2021-10-01T12:34:20Z</time>
      </trkpt>
      <trkpt lat="43.64217" lon="6.72426">
        <ele>391</ele>
        <time>2021-10-01T12:34:30Z</time>
      </trkpt>
      <trkpt lat="43.64225" lon="6.7241">
        <ele>392</ele>
        <time>2021-10-01T12:34:41Z</time>
      </trkpt>
      <trkpt lat="43.64229" lon="6.7239">
        <ele>392</ele>
        <time>2021-10-01T12:34:53Z</time>
      </trkpt>
      <trkpt lat="43.64255" lon="6.7239">
        <ele>394</ele>
        <time>2021-10-01T12:35:14Z</time>
      </trkpt>
      <trkpt lat="43.64244" lon="6.72385">
        <ele>393</ele>
        <time>2021-10-01T12:35:23Z</time>
      </trkpt>
      <trkpt lat="43.64233" lon="6.72389">
        <ele>392</ele>
        <time>2021-10-01T12:35:32Z</time>
      </trkpt>
      <trkpt lat="43.64231" lon="6.72385">
        <ele>392</ele>
        <time>2021-10-01T12:35:35Z</time>
      </trkpt>
      <trkpt lat="43.64237" lon="6.72389">
        <ele>393</ele>
        <time>2021-10-01T12:35:40Z</time>
      </trkpt>
      <trkpt lat="43.64242" lon="6.72409">
        <ele>394</ele>
        <time>2021-10-01T12:35:52Z</time>
      </trkpt>
      <trkpt lat="43.64271" lon="6.72415">
        <ele>397</ele>
        <time>2021-10-01T12:36:16Z</time>
      </trkpt>
      <trkpt lat="43.64316" lon="6.72445">
        <ele>399</ele>
        <time>2021-10-01T12:36:56Z</time>
      </trkpt>
      <trkpt lat="43.64372" lon="6.7247">
        <ele>400</ele>
        <time>2021-10-01T12:37:43Z</time>
      </trkpt>
      <trkpt lat="43.64407" lon="6.72482">
        <ele>400</ele>
        <time>2021-10-01T12:38:12Z</time>
      </trkpt>
      <trkpt lat="43.64452" lon="6.72487">
        <ele>401</ele>
        <time>2021-10-01T12:38:48Z</time>
      </trkpt>
      <trkpt lat="43.64461" lon="6.72486">
        <ele>401</ele>
        <time>2021-10-01T12:38:55Z</time>
      </trkpt>
      <trkpt lat="43.64503" lon="6.72451">
        <ele>402</ele>
        <time>2021-10-01T12:39:35Z</time>
      </trkpt>
      <trkpt lat="43.64516" lon="6.72445">
        <ele>403</ele>
        <time>2021-10-01T12:39:46Z</time>
      </trkpt>
      <trkpt lat="43.64527" lon="6.72426">
        <ele>403</ele>
        <time>2021-10-01T12:40:00Z</time>
      </trkpt>
      <trkpt lat="43.64543" lon="6.72425">
        <ele>404</ele>
        <time>2021-10-01T12:40:12Z</time>
      </trkpt>
      <trkpt lat="43.64562" lon="6.72415">
        <ele>405</ele>
        <time>2021-10-01T12:40:29Z</time>
      </trkpt>
      <trkpt lat="43.64575" lon="6.72414">
        <ele>406</ele>
        <time>2021-10-01T12:40:39Z</time>
      </trkpt>
      <trkpt lat="43.64599" lon="6.72394">
        <ele>407</ele>
        <time>2021-10-01T12:41:02Z</time>
      </trkpt>
      <trkpt lat="43.64614" lon="6.72388">
        <ele>407</ele>
        <time>2021-10-01T12:41:14Z</time>
      </trkpt>
      <trkpt lat="43.64645" lon="6.72359">
        <ele>409</ele>
        <time>2021-10-01T12:41:44Z</time>
      </trkpt>
      <trkpt lat="43.64658" lon="6.72359">
        <ele>410</ele>
        <time>2021-10-01T12:41:55Z</time>
      </trkpt>
      <trkpt lat="43.6467" lon="6.72354">
        <ele>411</ele>
        <time>2021-10-01T12:42:05Z</time>
      </trkpt>
      <trkpt lat="43.64688" lon="6.72358">
        <ele>412</ele>
        <time>2021-10-01T12:42:19Z</time>
      </trkpt>
      <trkpt lat="43.64722" lon="6.72355">
        <ele>415</ele>
        <time>2021-10-01T12:42:46Z</time>
      </trkpt>
      <trkpt lat="43.64743" lon="6.72358">
        <ele>416</ele>
        <time>2021-10-01T12:43:03Z</time>
      </trkpt>
      <trkpt lat="43.64764" lon="6.72347">
        <ele>418</ele>
        <time>2021-10-01T12:43:21Z</time>
      </trkpt>
      <trkpt lat="43.64796" lon="6.72358">
        <ele>419</ele>
        <time>2021-10-01T12:43:48Z</time>
      </trkpt>
      <trkpt lat="43.6481" lon="6.72379">
        <ele>419</ele>
        <time>2021-10-01T12:44:04Z</time>
      </trkpt>
      <trkpt lat="43.64824" lon="6.72383">
        <ele>419</ele>
        <time>2021-10-01T12:44:16Z</time>
      </trkpt>
      <trkpt lat="43.64834" lon="6.72395">
        <ele>420</ele>
        <time>2021-10-01T12:44:26Z</time>
      </trkpt>
      <trkpt lat="43.64835" lon="6.72443">
        <ele>420</ele>
        <time>2021-10-01T12:44:54Z</time>
      </trkpt>
      <trkpt lat="43.64849" lon="6.72484">
        <ele>421</ele>
        <time>2021-10-01T12:45:20Z</time>
      </trkpt>
      <trkpt lat="43.6485" lon="6.72541">
        <ele>422</ele>
        <time>2021-10-01T12:45:53Z</time>
      </trkpt>
      <trkpt lat="43.64867" lon="6.72595">
        <ele>422</ele>
        <time>2021-10-01T12:46:28Z</time>
      </trkpt>
      <trkpt lat="43.64872" lon="6.72647">
        <ele>421</ele>
        <time>2021-10-01T12:46:58Z</time>
      </trkpt>
      <trkpt lat="43.64882" lon="6.72685">
        <ele>422</ele>
        <time>2021-10-01T12:47:21Z</time>
      </trkpt>
      <trkpt lat="43.64888" lon="6.72753">
        <ele>422</ele>
        <time>2021-10-01T12:48:01Z</time>
      </trkpt>
      <trkpt lat="43.649" lon="6.72785">
        <ele>423</ele>
        <time>2021-10-01T12:48:22Z</time>
      </trkpt>
      <trkpt lat="43.64904" lon="6.72824">
        <ele>423</ele>
        <time>2021-10-01T12:48:45Z</time>
      </trkpt>
      <trkpt lat="43.64924" lon="6.72864">
        <ele>425</ele>
        <time>2021-10-01T12:49:13Z</time>
      </trkpt>
      <trkpt lat="43.64902" lon="6.7289">
        <ele>425</ele>
        <time>2021-10-01T12:49:36Z</time>
      </trkpt>
      <trkpt lat="43.64894" lon="6.72931">
        <ele>426</ele>
        <time>2021-10-01T12:50:01Z</time>
      </trkpt>
      <trkpt lat="43.64899" lon="6.72961">
        <ele>429</ele>
        <time>2021-10-01T12:50:19Z</time>
      </trkpt>
      <trkpt lat="43.64893" lon="6.72973">
        <ele>429</ele>
        <time>2021-10-01T12:50:27Z</time>
      </trkpt>
      <trkpt lat="43.64881" lon="6.72978">
        <ele>429</ele>
        <time>2021-10-01T12:50:37Z</time>
      </trkpt>
      <trkpt lat="43.64857" lon="6.72979">
        <ele>429</ele>
        <time>2021-10-01T12:50:56Z</time>
      </trkpt>
      <trkpt lat="43.6482" lon="6.72995">
        <ele>429</ele>
        <time>2021-10-01T12:51:27Z</time>
      </trkpt>
      <trkpt lat="43.64784" lon="6.73">
        <ele>427</ele>
        <time>2021-10-01T12:51:56Z</time>
      </trkpt>
      <trkpt lat="43.64768" lon="6.73008">
        <ele>427</ele>
        <time>2021-10-01T12:52:10Z</time>
      </trkpt>
      <trkpt lat="43.64751" lon="6.73026">
        <ele>428</ele>
        <time>2021-10-01T12:52:27Z</time>
      </trkpt>
      <trkpt lat="43.64726" lon="6.73086">
        <ele>434</ele>
        <time>2021-10-01T12:53:07Z</time>
      </trkpt>
      <trkpt lat="43.64728" lon="6.73138">
        <ele>437</ele>
        <time>2021-10-01T12:53:37Z</time>
      </trkpt>
      <trkpt lat="43.64711" lon="6.73192">
        <ele>439</ele>
        <time>2021-10-01T12:54:11Z</time>
      </trkpt>
      <trkpt lat="43.64715" lon="6.73202">
        <ele>440</ele>
        <time>2021-10-01T12:54:18Z</time>
      </trkpt>
      <trkpt lat="43.64724" lon="6.73201">
        <ele>440</ele>
        <time>2021-10-01T12:54:25Z</time>
      </trkpt>
      <trkpt lat="43.64768" lon="6.73179">
        <ele>441</ele>
        <time>2021-10-01T12:55:03Z</time>
      </trkpt>
      <trkpt lat="43.64814" lon="6.73163">
        <ele>446</ele>
        <time>2021-10-01T12:55:41Z</time>
      </trkpt>
      <trkpt lat="43.64852" lon="6.73165">
        <ele>448</ele>
        <time>2021-10-01T12:56:11Z</time>
      </trkpt>
      <trkpt lat="43.64871" lon="6.73175">
        <ele>448</ele>
        <time>2021-10-01T12:56:27Z</time>
      </trkpt>
      <trkpt lat="43.64891" lon="6.73175">
        <ele>448</ele>
        <time>2021-10-01T12:56:43Z</time>
      </trkpt>
      <trkpt lat="43.64913" lon="6.73181">
        <ele>448</ele>
        <time>2021-10-01T12:57:01Z</time>
      </trkpt>
      <trkpt lat="43.64952" lon="6.73212">
        <ele>451</ele>
        <time>2021-10-01T12:57:37Z</time>
      </trkpt>
      <trkpt lat="43.64967" lon="6.73218">
        <ele>452</ele>
        <time>2021-10-01T12:57:50Z</time>
      </trkpt>
      <trkpt lat="43.6497" lon="6.73221">
        <ele>452</ele>
        <time>2021-10-01T12:57:53Z</time>
      </trkpt>
      <trkpt lat="43.64967" lon="6.73227">
        <ele>452</ele>
        <time>2021-10-01T12:57:57Z</time>
      </trkpt>
      <trkpt lat="43.64921" lon="6.73238">
        <ele>448</ele>
        <time>2021-10-01T12:58:35Z</time>
      </trkpt>
      <trkpt lat="43.64896" lon="6.7324">
        <ele>447</ele>
        <time>2021-10-01T12:58:55Z</time>
      </trkpt>
      <trkpt lat="43.64885" lon="6.73246">
        <ele>447</ele>
        <time>2021-10-01T12:59:04Z</time>
      </trkpt>
      <trkpt lat="43.64865" lon="6.73267">
        <ele>447</ele>
        <time>2021-10-01T12:59:24Z</time>
      </trkpt>
      <trkpt lat="43.64847" lon="6.73274">
        <ele>446</ele>
        <time>2021-10-01T12:59:39Z</time>
      </trkpt>
      <trkpt lat="43.64846" lon="6.73285">
        <ele>446</ele>
        <time>2021-10-01T12:59:46Z</time>
      </trkpt>
      <trkpt lat="43.64848" lon="6.7328">
        <ele>446</ele>
        <time>2021-10-01T12:59:49Z</time>
      </trkpt>
      <trkpt lat="43.64842" lon="6.73276">
        <ele>445</ele>
        <time>2021-10-01T12:59:54Z</time>
      </trkpt>
      <trkpt lat="43.64843" lon="6.73273">
        <ele>445</ele>
        <time>2021-10-01T12:59:56Z</time>
      </trkpt>
      <trkpt lat="43.64835" lon="6.73272">
        <ele>445</ele>
        <time>2021-10-01T13:00:03Z</time>
      </trkpt>
      <trkpt lat="43.64805" lon="6.7329">
        <ele>443</ele>
        <time>2021-10-01T13:00:29Z</time>
      </trkpt>
      <trkpt lat="43.64782" lon="6.73291">
        <ele>441</ele>
        <time>2021-10-01T13:00:47Z</time>
      </trkpt>
      <trkpt lat="43.64766" lon="6.73298">
        <ele>440</ele>
        <time>2021-10-01T13:01:01Z</time>
      </trkpt>
      <trkpt lat="43.64736" lon="6.73301">
        <ele>438</ele>
        <time>2021-10-01T13:01:25Z</time>
      </trkpt>
      <trkpt lat="43.64633" lon="6.73329">
        <ele>432</ele>
        <time>2021-10-01T13:02:49Z</time>
      </trkpt>
      <trkpt lat="43.64578" lon="6.73338">
        <ele>429</ele>
        <time>2021-10-01T13:03:33Z</time>
      </trkpt>
      <trkpt lat="43.64526" lon="6.73342">
        <ele>426</ele>
        <time>2021-10-01T13:04:15Z</time>
      </trkpt>
      <trkpt lat="43.64463" lon="6.73335">
        <ele>426</ele>
        <time>2021-10-01T13:05:05Z</time>
      </trkpt>
      <trkpt lat="43.64447" lon="6.73339">
        <ele>425</ele>
        <time>2021-10-01T13:05:18Z</time>
      </trkpt>
      <trkpt lat="43.64421" lon="6.73354">
        <ele>424</ele>
        <time>2021-10-01T13:05:41Z</time>
      </trkpt>
      <trkpt lat="43.64377" lon="6.73388">
        <ele>421</ele>
        <time>2021-10-01T13:06:21Z</time>
      </trkpt>
      <trkpt lat="43.64286" lon="6.73407">
        <ele>420</ele>
        <time>2021-10-01T13:07:35Z</time>
      </trkpt>
      <trkpt lat="43.64264" lon="6.73398">
        <ele>420</ele>
        <time>2021-10-01T13:07:53Z</time>
      </trkpt>
      <trkpt lat="43.64235" lon="6.73396">
        <ele>419</ele>
        <time>2021-10-01T13:08:17Z</time>
      </trkpt>
      <trkpt lat="43.64175" lon="6.73428">
        <ele>411</ele>
        <time>2021-10-01T13:09:08Z</time>
      </trkpt>
      <trkpt lat="43.64143" lon="6.7345">
        <ele>407</ele>
        <time>2021-10-01T13:09:37Z</time>
      </trkpt>
      <trkpt lat="43.64121" lon="6.73453">
        <ele>404</ele>
        <time>2021-10-01T13:09:54Z</time>
      </trkpt>
      <trkpt lat="43.64069" lon="6.73479">
        <ele>398</ele>
        <time>2021-10-01T13:10:39Z</time>
      </trkpt>
      <trkpt lat="43.64029" lon="6.73486">
        <ele>394</ele>
        <time>2021-10-01T13:11:11Z</time>
      </trkpt>
      <trkpt lat="43.6401" lon="6.73496">
        <ele>392</ele>
        <time>2021-10-01T13:11:27Z</time>
      </trkpt>
      <trkpt lat="43.63977" lon="6.73506">
        <ele>390</ele>
        <time>2021-10-01T13:11:54Z</time>
      </trkpt>
      <trkpt lat="43.63967" lon="6.73516">
        <ele>389</ele>
        <time>2021-10-01T13:12:04Z</time>
      </trkpt>
      <trkpt lat="43.63944" lon="6.73516">
        <ele>388</ele>
        <time>2021-10-01T13:12:23Z</time>
      </trkpt>
      <trkpt lat="43.63916" lon="6.73528">
        <ele>386</ele>
        <time>2021-10-01T13:12:46Z</time>
      </trkpt>
      <trkpt lat="43.63869" lon="6.73577">
        <ele>384</ele>
        <time>2021-10-01T13:13:33Z</time>
      </trkpt>
      <trkpt lat="43.6385" lon="6.73587">
        <ele>383</ele>
        <time>2021-10-01T13:13:50Z</time>
      </trkpt>
      <trkpt lat="43.63838" lon="6.736">
        <ele>382</ele>
        <time>2021-10-01T13:14:02Z</time>
      </trkpt>
      <trkpt lat="43.63825" lon="6.73606">
        <ele>382</ele>
        <time>2021-10-01T13:14:13Z</time>
      </trkpt>
      <trkpt lat="43.63823" lon="6.73599">
        <ele>382</ele>
        <time>2021-10-01T13:14:17Z</time>
      </trkpt>
      <trkpt lat="43.63824" lon="6.73605">
        <ele>382</ele>
        <time>2021-10-01T13:14:21Z</time>
      </trkpt>
      <trkpt lat="43.63825" lon="6.73602">
        <ele>382</ele>
        <time>2021-10-01T13:14:23Z</time>
      </trkpt>
      <trkpt lat="43.6383" lon="6.73605">
        <ele>382</ele>
        <time>2021-10-01T13:14:27Z</time>
      </trkpt>
      <trkpt lat="43.63826" lon="6.73631">
        <ele>382</ele>
        <time>2021-10-01T13:14:42Z</time>
      </trkpt>
      <trkpt lat="43.6383" lon="6.73653">
        <ele>382</ele>
        <time>2021-10-01T13:14:55Z</time>
      </trkpt>
      <trkpt lat="43.63828" lon="6.73711">
        <ele>383</ele>
        <time>2021-10-01T13:15:29Z</time>
      </trkpt>
      <trkpt lat="43.63823" lon="6.73727">
        <ele>383</ele>
        <time>2021-10-01T13:15:39Z</time>
      </trkpt>
      <trkpt lat="43.63829" lon="6.7374">
        <ele>384</ele>
        <time>2021-10-01T13:15:48Z</time>
      </trkpt>
      <trkpt lat="43.63829" lon="6.73753">
        <ele>384</ele>
        <time>2021-10-01T13:15:56Z</time>
      </trkpt>
      <trkpt lat="43.63824" lon="6.73772">
        <ele>384</ele>
        <time>2021-10-01T13:16:07Z</time>
      </trkpt>
      <trkpt lat="43.63827" lon="6.73798">
        <ele>385</ele>
        <time>2021-10-01T13:16:23Z</time>
      </trkpt>
      <trkpt lat="43.63818" lon="6.73871">
        <ele>386</ele>
        <time>2021-10-01T13:17:06Z</time>
      </trkpt>
      <trkpt lat="43.63828" lon="6.73896">
        <ele>387</ele>
        <time>2021-10-01T13:17:22Z</time>
      </trkpt>
      <trkpt lat="43.63836" lon="6.73938">
        <ele>387</ele>
        <time>2021-10-01T13:17:47Z</time>
      </trkpt>
      <trkpt lat="43.63833" lon="6.73972">
        <ele>386</ele>
        <time>2021-10-01T13:18:07Z</time>
      </trkpt>
      <trkpt lat="43.63839" lon="6.73993">
        <ele>386</ele>
        <time>2021-10-01T13:18:20Z</time>
      </trkpt>
      <trkpt lat="43.63837" lon="6.74049">
        <ele>383</ele>
        <time>2021-10-01T13:18:53Z</time>
      </trkpt>
      <trkpt lat="43.63843" lon="6.7407">
        <ele>382</ele>
        <time>2021-10-01T13:19:06Z</time>
      </trkpt>
      <trkpt lat="43.63843" lon="6.74088">
        <ele>382</ele>
        <time>2021-10-01T13:19:16Z</time>
      </trkpt>
      <trkpt lat="43.63842" lon="6.74096">
        <ele>382</ele>
        <time>2021-10-01T13:19:21Z</time>
      </trkpt>
      <trkpt lat="43.63833" lon="6.74107">
        <ele>381</ele>
        <time>2021-10-01T13:19:31Z</time>
      </trkpt>
      <trkpt lat="43.63834" lon="6.74118">
        <ele>381</ele>
        <time>2021-10-01T13:19:37Z</time>
      </trkpt>
      <trkpt lat="43.63822" lon="6.74164">
        <ele>382</ele>
        <time>2021-10-01T13:20:05Z</time>
      </trkpt>
      <trkpt lat="43.63811" lon="6.74179">
        <ele>381</ele>
        <time>2021-10-01T13:20:18Z</time>
      </trkpt>
      <trkpt lat="43.63813" lon="6.74201">
        <ele>381</ele>
        <time>2021-10-01T13:20:30Z</time>
      </trkpt>
      <trkpt lat="43.63809" lon="6.74207">
        <ele>381</ele>
        <time>2021-10-01T13:20:35Z</time>
      </trkpt>
      <trkpt lat="43.63781" lon="6.74198">
        <ele>380</ele>
        <time>2021-10-01T13:20:58Z</time>
      </trkpt>
      <trkpt lat="43.6376" lon="6.74197">
        <ele>380</ele>
        <time>2021-10-01T13:21:15Z</time>
      </trkpt>
      <trkpt lat="43.63727" lon="6.74183">
        <ele>379</ele>
        <time>2021-10-01T13:21:43Z</time>
      </trkpt>
      <trkpt lat="43.63716" lon="6.74186">
        <ele>379</ele>
        <time>2021-10-01T13:21:52Z</time>
      </trkpt>
      <trkpt lat="43.63706" lon="6.74179">
        <ele>379</ele>
        <time>2021-10-01T13:22:01Z</time>
      </trkpt>
      <trkpt lat="43.63685" lon="6.74177">
        <ele>379</ele>
        <time>2021-10-01T13:22:18Z</time>
      </trkpt>
      <trkpt lat="43.63676" lon="6.74172">
        <ele>379</ele>
        <time>2021-10-01T13:22:25Z</time>
      </trkpt>
      <trkpt lat="43.63612" lon="6.7411">
        <ele>381</ele>
        <time>2021-10-01T13:23:28Z</time>
      </trkpt>
      <trkpt lat="43.63584" lon="6.74056">
        <ele>379</ele>
        <time>2021-10-01T13:24:06Z</time>
      </trkpt>
      <trkpt lat="43.63555" lon="6.74028">
        <ele>380</ele>
        <time>2021-10-01T13:24:35Z</time>
      </trkpt>
      <trkpt lat="43.63549" lon="6.74012">
        <ele>379</ele>
        <time>2021-10-01T13:24:45Z</time>
      </trkpt>
      <trkpt lat="43.63532" lon="6.7399">
        <ele>380</ele>
        <time>2021-10-01T13:25:04Z</time>
      </trkpt>
      <trkpt lat="43.63514" lon="6.73977">
        <ele>382</ele>
        <time>2021-10-01T13:25:20Z</time>
      </trkpt>
      <trkpt lat="43.63494" lon="6.73971">
        <ele>384</ele>
        <time>2021-10-01T13:25:36Z</time>
      </trkpt>
      <trkpt lat="43.63477" lon="6.73979">
        <ele>385</ele>
        <time>2021-10-01T13:25:51Z</time>
      </trkpt>
      <trkpt lat="43.6346" lon="6.73978">
        <ele>386</ele>
        <time>2021-10-01T13:26:04Z</time>
      </trkpt>
      <trkpt lat="43.63445" lon="6.73982">
        <ele>387</ele>
        <time>2021-10-01T13:26:17Z</time>
      </trkpt>
      <trkpt lat="43.63427" lon="6.73982">
        <ele>388</ele>
        <time>2021-10-01T13:26:31Z</time>
      </trkpt>
      <trkpt lat="43.63418" lon="6.73977">
        <ele>389</ele>
        <time>2021-10-01T13:26:39Z</time>
      </trkpt>
      <trkpt lat="43.63419" lon="6.73983">
        <ele>389</ele>
        <time>2021-10-01T13:26:42Z</time>
      </trkpt>
      <trkpt lat="43.63406" lon="6.73976">
        <ele>390</ele>
        <time>2021-10-01T13:26:54Z</time>
      </trkpt>
      <trkpt lat="43.63392" lon="6.73984">
        <ele>390</ele>
        <time>2021-10-01T13:27:06Z</time>
      </trkpt>
      <trkpt lat="43.63368" lon="6.7398">
        <ele>391</ele>
        <time>2021-10-01T13:27:25Z</time>
      </trkpt>
      <trkpt lat="43.63322" lon="6.73992">
        <ele>392</ele>
        <time>2021-10-01T13:28:03Z</time>
      </trkpt>
      <trkpt lat="43.63301" lon="6.73992">
        <ele>392</ele>
        <time>2021-10-01T13:28:19Z</time>
      </trkpt>
      <trkpt lat="43.63274" lon="6.73999">
        <ele>392</ele>
        <time>2021-10-01T13:28:41Z</time>
      </trkpt>
      <trkpt lat="43.63232" lon="6.73987">
        <ele>390</ele>
        <time>2021-10-01T13:29:16Z</time>
      </trkpt>
      <trkpt lat="43.63196" lon="6.73965">
        <ele>387</ele>
        <time>2021-10-01T13:29:47Z</time>
      </trkpt>
      <trkpt lat="43.63199" lon="6.73974">
        <ele>387</ele>
        <time>2021-10-01T13:29:53Z</time>
      </trkpt>
      <trkpt lat="43.6318" lon="6.7398">
        <ele>387</ele>
        <time>2021-10-01T13:30:09Z</time>
      </trkpt>
      <trkpt lat="43.63169" lon="6.7399">
        <ele>387</ele>
        <time>2021-10-01T13:30:19Z</time>
      </trkpt>
      <trkpt lat="43.63165" lon="6.74011">
        <ele>388</ele>
        <time>2021-10-01T13:30:32Z</time>
      </trkpt>
      <trkpt lat="43.63148" lon="6.7405">
        <ele>391</ele>
        <time>2021-10-01T13:30:58Z</time>
      </trkpt>
      <trkpt lat="43.63139" lon="6.74055">
        <ele>392</ele>
        <time>2021-10-01T13:31:06Z</time>
      </trkpt>
      <trkpt lat="43.63117" lon="6.74089">
        <ele>394</ele>
        <time>2021-10-01T13:31:32Z</time>
      </trkpt>
      <trkpt lat="43.63082" lon="6.74117">
        <ele>396</ele>
        <time>2021-10-01T13:32:05Z</time>
      </trkpt>
      <trkpt lat="43.6307" lon="6.74137">
        <ele>398</ele>
        <time>2021-10-01T13:32:20Z</time>
      </trkpt>
      <trkpt lat="43.63057" lon="6.74149">
        <ele>399</ele>
        <time>2021-10-01T13:32:32Z</time>
      </trkpt>
      <trkpt lat="43.63049" lon="6.74166">
        <ele>400</ele>
        <time>2021-10-01T13:32:44Z</time>
      </trkpt>
      <trkpt lat="43.63038" lon="6.74175">
        <ele>400</ele>
        <time>2021-10-01T13:32:54Z</time>
      </trkpt>
      <trkpt lat="43.63011" lon="6.74212">
        <ele>403</ele>
        <time>2021-10-01T13:33:25Z</time>
      </trkpt>
      <trkpt lat="43.63004" lon="6.74234">
        <ele>405</ele>
        <time>2021-10-01T13:33:39Z</time>
      </trkpt>
      <trkpt lat="43.6299" lon="6.74253">
        <ele>406</ele>
        <time>2021-10-01T13:33:54Z</time>
      </trkpt>
      <trkpt lat="43.6299" lon="6.7426">
        <ele>406</ele>
        <time>2021-10-01T13:33:58Z</time>
      </trkpt>
      <trkpt lat="43.62994" lon="6.74263">
        <ele>406</ele>
        <time>2021-10-01T13:34:02Z</time>
      </trkpt>
      <trkpt lat="43.62975" lon="6.74262">
        <ele>406</ele>
        <time>2021-10-01T13:34:17Z</time>
      </trkpt>
      <trkpt lat="43.62935" lon="6.74322">
        <ele>404</ele>
        <time>2021-10-01T13:35:04Z</time>
      </trkpt>
      <trkpt lat="43.6292" lon="6.74355">
        <ele>403</ele>
        <time>2021-10-01T13:35:27Z</time>
      </trkpt>
      <trkpt lat="43.62911" lon="6.74388">
        <ele>401</ele>
        <time>2021-10-01T13:35:48Z</time>
      </trkpt>
      <trkpt lat="43.62901" lon="6.74491">
        <ele>400</ele>
        <time>2021-10-01T13:36:48Z</time>
      </trkpt>
      <trkpt lat="43.62854" lon="6.7463">
        <ele>401</ele>
        <time>2021-10-01T13:38:17Z</time>
      </trkpt>
      <trkpt lat="43.62826" lon="6.74669">
        <ele>401</ele>
        <time>2021-10-01T13:38:48Z</time>
      </trkpt>
      <trkpt lat="43.62775" lon="6.74716">
        <ele>403</ele>
        <time>2021-10-01T13:39:38Z</time>
      </trkpt>
      <trkpt lat="43.62743" lon="6.74759">
        <ele>402</ele>
        <time>2021-10-01T13:40:13Z</time>
      </trkpt>
      <trkpt lat="43.62719" lon="6.74818">
        <ele>397</ele>
        <time>2021-10-01T13:40:53Z</time>
      </trkpt>
      <trkpt lat="43.62708" lon="6.74825">
        <ele>396</ele>
        <time>2021-10-01T13:41:02Z</time>
      </trkpt>
      <trkpt lat="43.62694" lon="6.74868">
        <ele>390</ele>
        <time>2021-10-01T13:41:30Z</time>
      </trkpt>
      <trkpt lat="43.62673" lon="6.74911">
        <ele>383</ele>
        <time>2021-10-01T13:42:00Z</time>
      </trkpt>
      <trkpt lat="43.62667" lon="6.7491">
        <ele>382</ele>
        <time>2021-10-01T13:42:04Z</time>
      </trkpt>
      <trkpt lat="43.62656" lon="6.74936">
        <ele>381</ele>
        <time>2021-10-01T13:42:22Z</time>
      </trkpt>
      <trkpt lat="43.62635" lon="6.74943">
        <ele>377</ele>
        <time>2021-10-01T13:42:39Z</time>
      </trkpt>
      <trkpt lat="43.62603" lon="6.74932">
        <ele>368</ele>
        <time>2021-10-01T13:43:06Z</time>
      </trkpt>
      <trkpt lat="43.62586" lon="6.74957">
        <ele>370</ele>
        <time>2021-10-01T13:43:26Z</time>
      </trkpt>
      <trkpt lat="43.62579" lon="6.74959">
        <ele>368</ele>
        <time>2021-10-01T13:43:31Z</time>
      </trkpt>
      <trkpt lat="43.62562" lon="6.74955">
        <ele>362</ele>
        <time>2021-10-01T13:43:45Z</time>
      </trkpt>
      <trkpt lat="43.62544" lon="6.74962">
        <ele>357</ele>
        <time>2021-10-01T13:44:00Z</time>
      </trkpt>
      <trkpt lat="43.62531" lon="6.74971">
        <ele>355</ele>
        <time>2021-10-01T13:44:12Z</time>
      </trkpt>
      <trkpt lat="43.62517" lon="6.74989">
        <ele>353</ele>
        <time>2021-10-01T13:44:27Z</time>
      </trkpt>
      <trkpt lat="43.62505" lon="6.75021">
        <ele>353</ele>
        <time>2021-10-01T13:44:48Z</time>
      </trkpt>
      <trkpt lat="43.62493" lon="6.75039">
        <ele>350</ele>
        <time>2021-10-01T13:45:02Z</time>
      </trkpt>
      <trkpt lat="43.62481" lon="6.7504">
        <ele>346</ele>
        <time>2021-10-01T13:45:12Z</time>
      </trkpt>
      <trkpt lat="43.62465" lon="6.75064">
        <ele>342</ele>
        <time>2021-10-01T13:45:31Z</time>
      </trkpt>
      <trkpt lat="43.62459" lon="6.75067">
        <ele>340</ele>
        <time>2021-10-01T13:45:36Z</time>
      </trkpt>
      <trkpt lat="43.62442" lon="6.75064">
        <ele>333</ele>
        <time>2021-10-01T13:45:49Z</time>
      </trkpt>
      <trkpt lat="43.62435" lon="6.75071">
        <ele>330</ele>
        <time>2021-10-01T13:45:56Z</time>
      </trkpt>
      <trkpt lat="43.62432" lon="6.75092">
        <ele>330</ele>
        <time>2021-10-01T13:46:09Z</time>
      </trkpt>
      <trkpt lat="43.62412" lon="6.7514">
        <ele>325</ele>
        <time>2021-10-01T13:46:41Z</time>
      </trkpt>
      <trkpt lat="43.6241" lon="6.75152">
        <ele>325</ele>
        <time>2021-10-01T13:46:48Z</time>
      </trkpt>
      <trkpt lat="43.62413" lon="6.75157">
        <ele>326</ele>
        <time>2021-10-01T13:46:52Z</time>
      </trkpt>
      <trkpt lat="43.62392" lon="6.75181">
        <ele>324</ele>
        <time>2021-10-01T13:47:14Z</time>
      </trkpt>
      <trkpt lat="43.62379" lon="6.75205">
        <ele>326</ele>
        <time>2021-10-01T13:47:31Z</time>
      </trkpt>
      <trkpt lat="43.6236" lon="6.75221">
        <ele>325</ele>
        <time>2021-10-01T13:47:49Z</time>
      </trkpt>
      <trkpt lat="43.62353" lon="6.75235">
        <ele>327</ele>
        <time>2021-10-01T13:47:59Z</time>
      </trkpt>
      <trkpt lat="43.62329" lon="6.75257">
        <ele>327</ele>
        <time>2021-10-01T13:48:22Z</time>
      </trkpt>
      <trkpt lat="43.62324" lon="6.75268">
        <ele>328</ele>
        <time>2021-10-01T13:48:29Z</time>
      </trkpt>
      <trkpt lat="43.62325" lon="6.75278">
        <ele>329</ele>
        <time>2021-10-01T13:48:35Z</time>
      </trkpt>
      <trkpt lat="43.62317" lon="6.7528">
        <ele>329</ele>
        <time>2021-10-01T13:48:42Z</time>
      </trkpt>
      <trkpt lat="43.62316" lon="6.75286">
        <ele>329</ele>
        <time>2021-10-01T13:48:45Z</time>
      </trkpt>
      <trkpt lat="43.62306" lon="6.75294">
        <ele>330</ele>
        <time>2021-10-01T13:48:54Z</time>
      </trkpt>
      <trkpt lat="43.62308" lon="6.75308">
        <ele>331</ele>
        <time>2021-10-01T13:49:03Z</time>
      </trkpt>
      <trkpt lat="43.62299" lon="6.75351">
        <ele>332</ele>
        <time>2021-10-01T13:49:29Z</time>
      </trkpt>
      <trkpt lat="43.6229" lon="6.75358">
        <ele>330</ele>
        <time>2021-10-01T13:49:37Z</time>
      </trkpt>
      <trkpt lat="43.62284" lon="6.75373">
        <ele>329</ele>
        <time>2021-10-01T13:49:47Z</time>
      </trkpt>
      <trkpt lat="43.62288" lon="6.75384">
        <ele>328</ele>
        <time>2021-10-01T13:49:54Z</time>
      </trkpt>
      <trkpt lat="43.62299" lon="6.75388">
        <ele>330</ele>
        <time>2021-10-01T13:50:03Z</time>
      </trkpt>
      <trkpt lat="43.62298" lon="6.75421">
        <ele>328</ele>
        <time>2021-10-01T13:50:22Z</time>
      </trkpt>
      <trkpt lat="43.62302" lon="6.75416">
        <ele>329</ele>
        <time>2021-10-01T13:50:27Z</time>
      </trkpt>
      <trkpt lat="43.62306" lon="6.7542">
        <ele>329</ele>
        <time>2021-10-01T13:50:30Z</time>
      </trkpt>
      <trkpt lat="43.62302" lon="6.75421">
        <ele>328</ele>
        <time>2021-10-01T13:50:34Z</time>
      </trkpt>
      <trkpt lat="43.62302" lon="6.75415">
        <ele>329</ele>
        <time>2021-10-01T13:50:37Z</time>
      </trkpt>
    </trkseg>
  </trk>
</gpx>